Time,TemperatureF,DewpointF,PressureIn,WindDirection,WindDirectionDegrees,WindSpeedMPH,WindSpeedGustMPH,Humidity,HourlyPrecipIn,Conditions,Clouds,dailyrainin,SoftwareType,DateUTC
2013-02-21 01:32:00,51.0,-99.9,30.00,SSW,200,1.0,1.0,-999,-99.99,,,-99.99,,2013-02-21 09:32:00,
2013-02-21 01:42:00,49.0,-99.9,30.01,ENE,70,2.0,3.0,-999,-99.99,,,-99.99,,2013-02-21 09:42:00,
2013-02-21 01:52:00,49.0,-99.9,30.01,ENE,70,2.0,3.0,-999,-99.99,,,-99.99,,2013-02-21 09:52:00,
2013-02-21 02:01:00,49.0,-99.9,30.02,ENE,70,2.0,4.0,-999,-99.99,,,-99.99,,2013-02-21 10:01:00,
2013-02-21 02:11:00,49.0,-99.9,30.02,ENE,70,2.0,4.0,-999,-99.99,,,-99.99,,2013-02-21 10:11:00,
2013-02-21 02:21:00,49.0,-99.9,30.00,ENE,69,3.0,7.0,-999,-99.99,,,-99.99,,2013-02-21 10:21:00,
2013-02-21 02:31:00,48.0,-99.9,30.00,East,80,3.0,6.0,-999,-99.99,,,-99.99,,2013-02-21 10:31:00,
2013-02-21 02:41:00,48.0,-99.9,29.99,East,85,4.0,8.0,-999,-99.99,,,-99.99,,2013-02-21 10:41:00,
2013-02-21 02:51:00,48.0,-99.9,29.99,East,85,4.0,8.0,-999,-99.99,,,-99.99,,2013-02-21 10:51:00,
2013-02-21 03:01:00,48.0,-99.9,29.98,East,83,3.0,7.0,-999,-99.99,,,-99.99,,2013-02-21 11:01:00,
2013-02-21 03:11:00,48.0,-99.9,29.98,East,83,3.0,7.0,-999,-99.99,,,-99.99,,2013-02-21 11:11:00,
2013-02-21 03:21:00,48.0,-99.9,29.97,East,79,3.0,7.0,-999,-99.99,,,-99.99,,2013-02-21 11:21:00,
2013-02-21 03:31:00,48.0,-99.9,29.98,East,82,3.0,5.0,-999,-99.99,,,-99.99,,2013-02-21 11:31:00,
2013-02-21 03:41:00,48.0,-99.9,29.99,ENE,75,3.0,6.0,-999,-99.99,,,-99.99,,2013-02-21 11:41:00,
2013-02-21 03:52:00,48.0,-99.9,29.99,ENE,75,3.0,6.0,-999,-99.99,,,-99.99,,2013-02-21 11:52:00,
2013-02-21 04:01:00,48.0,-99.9,30.01,ENE,58,2.0,6.0,-999,-99.99,,,-99.99,,2013-02-21 12:01:00,
2013-02-21 04:11:00,48.0,-99.9,30.00,NE,54,3.0,5.0,-999,-99.99,,,-99.99,,2013-02-21 12:11:00,
2013-02-21 04:22:00,48.0,-99.9,30.00,NE,54,3.0,5.0,-999,-99.99,,,-99.99,,2013-02-21 12:22:00,
2013-02-21 04:32:00,48.0,-99.9,30.01,ENE,59,3.0,6.0,-999,-99.99,,,-99.99,,2013-02-21 12:32:00,
2013-02-21 04:40:00,48.0,-99.9,30.01,ENE,72,4.0,6.0,-999,-99.99,,,-99.99,,2013-02-21 12:40:00,
2013-02-21 04:43:00,48.0,-99.9,30.02,ENE,70,3.0,6.0,-999,-99.99,,,-99.99,,2013-02-21 12:43:00,
2013-02-21 04:53:00,48.0,-99.9,30.02,ENE,70,3.0,6.0,-999,-99.99,,,-99.99,,2013-02-21 12:53:00,
2013-02-21 05:02:00,48.0,-99.9,30.01,ENE,72,4.0,6.0,-999,-99.99,,,-99.99,,2013-02-21 13:02:00,
2013-02-21 05:12:00,48.0,-99.9,30.01,ENE,72,4.0,6.0,-999,-99.99,,,-99.99,,2013-02-21 13:12:00,
2013-02-21 05:22:00,48.0,-99.9,30.01,ENE,72,4.0,6.0,-999,-99.99,,,-99.99,,2013-02-21 13:22:00,
2013-02-21 05:32:00,48.0,-99.9,30.01,ENE,72,4.0,6.0,-999,-99.99,,,-99.99,,2013-02-21 13:32:00,
2013-02-21 06:22:00,48.0,-99.9,30.01,ENE,71,3.0,6.0,-999,-99.99,,,-99.99,,2013-02-21 14:22:00,
2013-02-21 06:32:00,47.0,-99.9,30.02,ENE,78,1.0,6.0,-999,-99.99,,,-99.99,,2013-02-21 14:32:00,
2013-02-21 06:42:00,47.0,-99.9,30.02,NE,42,0.0,4.0,-999,-99.99,,,-99.99,,2013-02-21 14:42:00,
2013-02-21 06:52:00,47.0,-99.9,30.02,NE,42,0.0,4.0,-999,-99.99,,,-99.99,,2013-02-21 14:52:00,
2013-02-21 07:02:00,47.0,-99.9,30.01,ENE,74,3.0,5.0,-999,-99.99,,,-99.99,,2013-02-21 15:02:00,
2013-02-21 07:12:00,47.0,-99.9,30.02,NE,43,2.0,3.0,-999,-99.99,,,-99.99,,2013-02-21 15:12:00,
2013-02-21 07:22:00,47.0,-99.9,30.02,NE,43,2.0,3.0,-999,-99.99,,,-99.99,,2013-02-21 15:22:00,
2013-02-21 07:32:00,47.0,-99.9,30.02,NE,54,2.0,5.0,-999,-99.99,,,-99.99,,2013-02-21 15:32:00,
2013-02-21 07:42:00,47.0,-99.9,30.02,NE,54,2.0,5.0,-999,-99.99,,,-99.99,,2013-02-21 15:42:00,
2013-02-21 07:52:00,47.0,-99.9,30.02,ENE,69,3.0,6.0,-999,-99.99,,,-99.99,,2013-02-21 15:52:00,
2013-02-21 08:02:00,47.0,-99.9,30.02,ENE,65,3.0,6.0,-999,-99.99,,,-99.99,,2013-02-21 16:02:00,
2013-02-21 08:12:00,48.0,-99.9,30.05,NE,50,3.0,8.0,-999,-99.99,,,-99.99,,2013-02-21 16:12:00,
2013-02-21 08:22:00,48.0,-99.9,30.05,NE,50,3.0,8.0,-999,-99.99,,,-99.99,,2013-02-21 16:22:00,
2013-02-21 08:32:00,48.0,-99.9,30.04,ENE,61,3.0,8.0,-999,-99.99,,,-99.99,,2013-02-21 16:32:00,
2013-02-21 08:42:00,49.0,-99.9,30.03,ENE,58,4.0,7.0,-999,-99.99,,,-99.99,,2013-02-21 16:42:00,
2013-02-21 08:52:00,49.0,-99.9,30.03,ENE,58,4.0,7.0,-999,-99.99,,,-99.99,,2013-02-21 16:52:00,
2013-02-21 09:02:00,50.0,-99.9,30.05,NE,39,3.0,5.0,-999,-99.99,,,-99.99,,2013-02-21 17:02:00,
2013-02-21 09:11:00,51.0,-99.9,30.06,East,90,3.0,6.0,-999,-99.99,,,-99.99,,2013-02-21 17:11:00,
2013-02-21 09:22:00,51.0,-99.9,30.06,East,90,3.0,6.0,-999,-99.99,,,-99.99,,2013-02-21 17:22:00,
2013-02-21 09:32:00,51.0,-99.9,30.07,NE,42,2.0,6.0,-999,-99.99,,,-99.99,,2013-02-21 17:32:00,
2013-02-21 09:42:00,52.0,-99.9,30.06,ENE,76,3.0,9.0,-999,-99.99,,,-99.99,,2013-02-21 17:42:00,
2013-02-21 09:52:00,52.0,-99.9,30.06,ENE,76,3.0,9.0,-999,-99.99,,,-99.99,,2013-02-21 17:52:00,
2013-02-21 10:02:00,52.0,-99.9,30.06,ENE,63,2.0,7.0,-999,-99.99,,,-99.99,,2013-02-21 18:02:00,
2013-02-21 10:12:00,53.0,-99.9,30.07,NNE,21,1.0,5.0,-999,-99.99,,,-99.99,,2013-02-21 18:12:00,
2013-02-21 10:22:00,53.0,-99.9,30.07,NNE,21,1.0,5.0,-999,-99.99,,,-99.99,,2013-02-21 18:22:00,
2013-02-21 10:32:00,53.0,-99.9,30.07,East,83,4.0,7.0,-999,-99.99,,,-99.99,,2013-02-21 18:32:00,
2013-02-21 10:42:00,53.0,-99.9,30.07,East,83,4.0,7.0,-999,-99.99,,,-99.99,,2013-02-21 18:42:00,
2013-02-21 10:52:00,54.0,-99.9,30.08,ENE,58,3.0,8.0,-999,-99.99,,,-99.99,,2013-02-21 18:52:00,
2013-02-21 11:02:00,54.0,-99.9,30.07,ESE,110,4.0,8.0,-999,-99.99,,,-99.99,,2013-02-21 19:02:00,
2013-02-21 11:12:00,54.0,-99.9,30.07,ESE,110,4.0,8.0,-999,-99.99,,,-99.99,,2013-02-21 19:12:00,
2013-02-21 11:22:00,55.0,-99.9,30.05,East,101,3.0,6.0,-999,-99.99,,,-99.99,,2013-02-21 19:22:00,
2013-02-21 11:32:00,56.0,-99.9,30.04,ESE,113,2.0,4.0,-999,-99.99,,,-99.99,,2013-02-21 19:32:00,
2013-02-21 11:42:00,56.0,-99.9,30.04,ESE,113,2.0,4.0,-999,-99.99,,,-99.99,,2013-02-21 19:42:00,
2013-02-21 11:52:00,57.0,-99.9,30.04,SE,130,4.0,8.0,-999,-99.99,,,-99.99,,2013-02-21 19:52:00,
2013-02-21 12:01:00,57.0,-99.9,30.02,ENE,65,2.0,7.0,-999,-99.99,,,-99.99,,2013-02-21 20:01:00,
2013-02-21 12:11:00,58.0,-99.9,30.03,SE,124,3.0,9.0,-999,-99.99,,,-99.99,,2013-02-21 20:11:00,
2013-02-21 12:21:00,58.0,-99.9,30.03,SE,124,3.0,9.0,-999,-99.99,,,-99.99,,2013-02-21 20:21:00,
2013-02-21 12:32:00,59.0,-99.9,30.03,SW,227,2.0,6.0,-999,-99.99,,,-99.99,,2013-02-21 20:32:00,
2013-02-21 12:42:00,59.0,-99.9,30.03,SW,227,2.0,6.0,-999,-99.99,,,-99.99,,2013-02-21 20:42:00,
2013-02-21 12:53:00,59.0,-99.9,30.02,NNE,22,4.0,6.0,-999,-99.99,,,-99.99,,2013-02-21 20:53:00,
2013-02-21 13:02:00,59.0,-99.9,30.01,West,275,3.0,6.0,-999,-99.99,,,-99.99,,2013-02-21 21:02:00,
2013-02-21 13:12:00,60.0,-99.9,30.01,WNW,296,3.0,6.0,-999,-99.99,,,-99.99,,2013-02-21 21:12:00,
2013-02-21 13:22:00,60.0,-99.9,30.01,WNW,296,3.0,6.0,-999,-99.99,,,-99.99,,2013-02-21 21:22:00,
2013-02-21 13:32:00,60.0,-99.9,30.01,NNE,32,2.0,6.0,-999,-99.99,,,-99.99,,2013-02-21 21:32:00,
2013-02-21 13:42:00,60.0,-99.9,29.99,WNW,294,4.0,9.0,-999,-99.99,,,-99.99,,2013-02-21 21:42:00,
2013-02-21 13:52:00,60.0,-99.9,29.99,WNW,294,4.0,9.0,-999,-99.99,,,-99.99,,2013-02-21 21:52:00,
2013-02-21 14:01:00,61.0,-99.9,29.98,SW,228,4.0,7.0,-999,-99.99,,,-99.99,,2013-02-21 22:01:00,
2013-02-21 14:11:00,61.0,-99.9,29.98,SW,228,4.0,7.0,-999,-99.99,,,-99.99,,2013-02-21 22:11:00,
2013-02-21 14:22:00,62.0,-99.9,30.00,NNE,29,4.0,5.0,-999,-99.99,,,-99.99,,2013-02-21 22:22:00,
2013-02-21 14:32:00,61.0,-99.9,30.02,NNW,342,3.0,6.0,-999,-99.99,,,-99.99,,2013-02-21 22:32:00,
2013-02-21 14:42:00,61.0,-99.9,29.98,NE,40,4.0,6.0,-999,-99.99,,,-99.99,,2013-02-21 22:42:00,
2013-02-21 14:52:00,61.0,-99.9,29.98,NE,40,4.0,6.0,-999,-99.99,,,-99.99,,2013-02-21 22:52:00,
2013-02-21 15:01:00,61.0,-99.9,29.99,NE,53,2.0,6.0,-999,-99.99,,,-99.99,,2013-02-21 23:01:00,
2013-02-21 15:11:00,61.0,-99.9,29.99,NE,53,2.0,6.0,-999,-99.99,,,-99.99,,2013-02-21 23:11:00,
2013-02-21 15:21:00,61.0,-99.9,30.00,North,359,4.0,8.0,-999,-99.99,,,-99.99,,2013-02-21 23:21:00,
2013-02-21 15:32:00,61.0,-99.9,29.98,ENE,78,3.0,7.0,-999,-99.99,,,-99.99,,2013-02-21 23:32:00,
2013-02-21 15:42:00,61.0,-99.9,29.98,ENE,78,3.0,7.0,-999,-99.99,,,-99.99,,2013-02-21 23:42:00,
2013-02-21 15:53:00,62.0,-99.9,30.00,NNW,343,3.0,8.0,-999,-99.99,,,-99.99,,2013-02-21 23:53:00,
2013-02-21 16:02:00,62.0,-99.9,29.99,NNW,335,2.0,5.0,-999,-99.99,,,-99.99,,2013-02-22 00:02:00,
2013-02-21 16:11:00,62.0,-99.9,29.99,NNW,335,2.0,5.0,-999,-99.99,,,-99.99,,2013-02-22 00:11:00,
2013-02-21 16:22:00,61.0,-99.9,29.99,SW,219,4.0,11.0,-999,-99.99,,,-99.99,,2013-02-22 00:22:00,
2013-02-21 16:32:00,61.0,-99.9,29.99,WSW,244,5.0,8.0,-999,-99.99,,,-99.99,,2013-02-22 00:32:00,
2013-02-21 16:42:00,61.0,-99.9,29.99,WSW,244,5.0,8.0,-999,-99.99,,,-99.99,,2013-02-22 00:42:00,
2013-02-21 16:52:00,61.0,-99.9,29.99,West,270,5.0,9.0,-999,-99.99,,,-99.99,,2013-02-22 00:52:00,
2013-02-21 17:01:00,61.0,-99.9,30.02,West,267,6.0,10.0,-999,-99.99,,,-99.99,,2013-02-22 01:01:00,
2013-02-21 17:11:00,61.0,-99.9,30.02,West,267,6.0,10.0,-999,-99.99,,,-99.99,,2013-02-22 01:11:00,
2013-02-21 17:22:00,60.0,-99.9,30.00,WNW,283,4.0,13.0,-999,-99.99,,,-99.99,,2013-02-22 01:22:00,
2013-02-21 17:32:00,60.0,-99.9,30.02,West,276,6.0,10.0,-999,-99.99,,,-99.99,,2013-02-22 01:32:00,
2013-02-21 17:42:00,59.0,-99.9,30.03,West,276,7.0,11.0,-999,-99.99,,,-99.99,,2013-02-22 01:42:00,
2013-02-21 17:52:00,59.0,-99.9,30.03,West,276,7.0,11.0,-999,-99.99,,,-99.99,,2013-02-22 01:52:00,
2013-02-21 18:02:00,58.0,-99.9,30.03,West,272,6.0,10.0,-999,-99.99,,,-99.99,,2013-02-22 02:02:00,
2013-02-21 18:11:00,58.0,-99.9,30.05,West,275,7.0,12.0,-999,-99.99,,,-99.99,,2013-02-22 02:11:00,
2013-02-21 18:22:00,58.0,-99.9,30.05,West,275,7.0,12.0,-999,-99.99,,,-99.99,,2013-02-22 02:22:00,
2013-02-21 18:32:00,57.0,-99.9,30.03,West,274,6.0,10.0,-999,-99.99,,,-99.99,,2013-02-22 02:32:00,
2013-02-21 18:42:00,57.0,-99.9,30.04,West,281,6.0,10.0,-999,-99.99,,,-99.99,,2013-02-22 02:42:00,
2013-02-21 18:52:00,57.0,-99.9,30.04,West,281,6.0,10.0,-999,-99.99,,,-99.99,,2013-02-22 02:52:00,
2013-02-21 19:02:00,57.0,-99.9,30.04,WNW,293,5.0,9.0,-999,-99.99,,,-99.99,,2013-02-22 03:02:00,
2013-02-21 19:11:00,56.0,-99.9,30.04,West,278,4.0,12.0,-999,-99.99,,,-99.99,,2013-02-22 03:11:00,
2013-02-21 19:22:00,56.0,-99.9,30.04,West,278,4.0,12.0,-999,-99.99,,,-99.99,,2013-02-22 03:22:00,
2013-02-21 19:32:00,56.0,-99.9,30.04,West,278,4.0,12.0,-999,-99.99,,,-99.99,,2013-02-22 03:32:00,
2013-02-21 19:42:00,56.0,-99.9,30.04,West,278,4.0,12.0,-999,-99.99,,,-99.99,,2013-02-22 03:42:00,
2013-02-21 19:52:00,56.0,-99.9,30.07,NW,323,1.0,5.0,-999,-99.99,,,-99.99,,2013-02-22 03:52:00,
2013-02-21 20:02:00,56.0,-99.9,30.07,NW,307,1.0,3.0,-999,-99.99,,,-99.99,,2013-02-22 04:02:00,
2013-02-21 20:11:00,56.0,-99.9,30.09,SE,128,0.0,1.0,-999,-99.99,,,-99.99,,2013-02-22 04:11:00,
2013-02-21 20:22:00,56.0,-99.9,30.09,SE,128,0.0,1.0,-999,-99.99,,,-99.99,,2013-02-22 04:22:00,
2013-02-21 20:32:00,56.0,-99.9,30.09,ESE,110,0.0,1.0,-999,-99.99,,,-99.99,,2013-02-22 04:32:00,
2013-02-21 20:42:00,56.0,-99.9,30.08,ESE,123,1.0,1.0,-999,-99.99,,,-99.99,,2013-02-22 04:42:00,
2013-02-21 20:52:00,56.0,-99.9,30.08,ESE,123,1.0,1.0,-999,-99.99,,,-99.99,,2013-02-22 04:52:00,
2013-02-21 21:02:00,56.0,-99.9,30.07,ENE,71,1.0,2.0,-999,-99.99,,,-99.99,,2013-02-22 05:02:00,
2013-02-21 21:12:00,55.0,-99.9,30.08,ESE,105,1.0,2.0,-999,-99.99,,,-99.99,,2013-02-22 05:12:00,
2013-02-21 21:22:00,55.0,-99.9,30.08,ESE,105,1.0,2.0,-999,-99.99,,,-99.99,,2013-02-22 05:22:00,
2013-02-21 21:32:00,55.0,-99.9,30.09,South,188,0.0,2.0,-999,-99.99,,,-99.99,,2013-02-22 05:32:00,
2013-02-21 21:42:00,55.0,-99.9,30.09,ESE,106,1.0,2.0,-999,-99.99,,,-99.99,,2013-02-22 05:42:00,
2013-02-21 21:52:00,55.0,-99.9,30.09,ESE,106,1.0,2.0,-999,-99.99,,,-99.99,,2013-02-22 05:52:00,
2013-02-21 22:02:00,54.0,-99.9,30.09,SSE,157,1.0,2.0,-999,-99.99,,,-99.99,,2013-02-22 06:02:00,
2013-02-21 22:12:00,54.0,-99.9,30.09,East,90,0.0,1.0,-999,-99.99,,,-99.99,,2013-02-22 06:12:00,
2013-02-21 22:22:00,54.0,-99.9,30.09,East,90,0.0,1.0,-999,-99.99,,,-99.99,,2013-02-22 06:22:00,
2013-02-21 22:32:00,54.0,-99.9,30.09,East,90,0.0,1.0,-999,-99.99,,,-99.99,,2013-02-22 06:32:00,
2013-02-21 22:42:00,54.0,-99.9,30.09,East,90,0.0,1.0,-999,-99.99,,,-99.99,,2013-02-22 06:42:00,
2013-02-21 22:52:00,54.0,-99.9,30.08,East,81,2.0,3.0,-999,-99.99,,,-99.99,,2013-02-22 06:52:00,
2013-02-21 23:01:00,53.0,-99.9,30.08,North,360,0.0,3.0,-999,-99.99,,,-99.99,,2013-02-22 07:01:00,
2013-02-21 23:11:00,53.0,-99.9,30.10,NW,315,0.0,3.0,-999,-99.99,,,-99.99,,2013-02-22 07:11:00,
2013-02-21 23:22:00,53.0,-99.9,30.10,NW,315,0.0,3.0,-999,-99.99,,,-99.99,,2013-02-22 07:22:00,
2013-02-21 23:32:00,53.0,-99.9,30.11,NNE,24,1.0,1.0,-999,-99.99,,,-99.99,,2013-02-22 07:32:00,
2013-02-21 23:42:00,52.0,-99.9,30.10,SW,224,1.0,1.0,-999,-99.99,,,-99.99,,2013-02-22 07:42:00,
2013-02-21 23:52:00,52.0,-99.9,30.10,SW,224,1.0,1.0,-999,-99.99,,,-99.99,,2013-02-22 07:52:00,